Sertosa Veintisiete — EAJZ — position and weather

sailwx.info

Track history (hours):
 
Tides and Currents Weather Stations Pressure Air Temp Water Temp Dewpoint Dewpoint Depression Visibility Wind Speed Wind Dir Waves Ship Positions

Sertosa Veintisiete

Last reported at 2017-Nov-24 01:31 UTC. Time now 2017-Nov-24 12:59 UTC.
Position N 36°11' W 005°24'.

Length 24 m; draft 6.9 m.

Type: Tug. MMSI: 224337000.

Date/timePositionNaut miles runAvg speedWind from/ knotsBaromVisibWave heightAir tempDewpointWater temp
2017-Nov-24 01:31N 36°11' W 005°24'0 1.8
2017-Nov-24 01:26N 36°11' W 005°23'1 0.5
2017-Nov-24 00:12N 36°11' W 005°24'1 1.5
2017-Nov-23 23:26N 36°10' W 005°25'2 0.1
2017-Nov-23 02:45N 36°10' W 005°23'0 0.0
2017-Nov-23 01:14N 36°10' W 005°23'1 3.6
2017-Nov-23 00:58N 36°10' W 005°24'0 0.2
2017-Nov-23 00:28N 36°11' W 005°24'1 1.8
2017-Nov-23 00:00N 36°10' W 005°23'0 0.1
2017-Nov-22 21:56N 36°10' W 005°23'  
2017-Nov-19 22:30N 36°08' W 005°24'4 9.1
2017-Nov-19 22:00N 36°04' W 005°22'5 9.4
2017-Nov-19 21:30N 35°59' W 005°21'4 9.0
2017-Nov-19 21:00N 35°55' W 005°19'1 2.4
2017-Nov-19 20:30N 35°54' W 005°18'0 0.7
2017-Nov-19 20:00N 35°54' W 005°19'0 0.2
2017-Nov-19 19:30N 35°54' W 005°19'0 0.0
2017-Nov-19 19:00N 35°54' W 005°19'0 0.0
2017-Nov-19 18:30N 35°54' W 005°19'1 1.7
2017-Nov-19 18:00N 35°55' W 005°19'5 9.1
2017-Nov-19 17:30N 35°59' W 005°21'5 9.1
2017-Nov-19 17:00N 36°03' W 005°23'6 0.7
2017-Nov-19 07:59N 36°09' W 005°24'  
2017-Nov-16 21:32N 36°11' W 005°24'0 0.3
2017-Nov-16 21:29N 36°11' W 005°24'1 0.1
2017-Nov-16 07:19N 36°10' W 005°24'  
Track history (hours):
 
Tides and Currents Weather Stations Pressure Air Temp Water Temp Dewpoint Dewpoint Depression Visibility Wind Speed Wind Dir Waves Ship Positions

Sertosa Veintisiete

Last reported at 2017-Nov-24 01:31 UTC. Time now 2017-Nov-24 12:59 UTC.
Position N 36°11' W 005°24'.

Length 24 m; draft 6.9 m.

Type: Tug. MMSI: 224337000.

Date/timePositionNaut miles runAvg speedWind from/ knotsBaromVisibWave heightAir tempDewpointWater temp
2017-Nov-24 01:31N 36°11' W 005°24'0 1.8
2017-Nov-24 01:26N 36°11' W 005°23'1 0.5
2017-Nov-24 00:12N 36°11' W 005°24'1 1.5
2017-Nov-23 23:26N 36°10' W 005°25'2 0.1
2017-Nov-23 02:45N 36°10' W 005°23'0 0.0
2017-Nov-23 01:14N 36°10' W 005°23'1 3.6
2017-Nov-23 00:58N 36°10' W 005°24'0 0.2
2017-Nov-23 00:28N 36°11' W 005°24'1 1.8
2017-Nov-23 00:00N 36°10' W 005°23'0 0.1
2017-Nov-22 21:56N 36°10' W 005°23'  
2017-Nov-19 22:30N 36°08' W 005°24'4 9.1
2017-Nov-19 22:00N 36°04' W 005°22'5 9.4
2017-Nov-19 21:30N 35°59' W 005°21'4 9.0
2017-Nov-19 21:00N 35°55' W 005°19'1 2.4
2017-Nov-19 20:30N 35°54' W 005°18'0 0.7
2017-Nov-19 20:00N 35°54' W 005°19'0 0.2
2017-Nov-19 19:30N 35°54' W 005°19'0 0.0
2017-Nov-19 19:00N 35°54' W 005°19'0 0.0
2017-Nov-19 18:30N 35°54' W 005°19'1 1.7
2017-Nov-19 18:00N 35°55' W 005°19'5 9.1
2017-Nov-19 17:30N 35°59' W 005°21'5 9.1
2017-Nov-19 17:00N 36°03' W 005°23'6 0.7
2017-Nov-19 07:59N 36°09' W 005°24'  
2017-Nov-16 21:32N 36°11' W 005°24'0 0.3
2017-Nov-16 21:29N 36°11' W 005°24'1 0.1
2017-Nov-16 07:19N 36°10' W 005°24'  

Dump ship's entire track history